sensor_id;sensor_type;location;lat;lon;timestamp;P1;durP1;ratioP1;P2;durP2;ratioP2
616;SDS011;295;51.628;7.520;2022-07-23T00:01:05;0.90;;;0.50;;
616;SDS011;295;51.628;7.520;2022-07-23T00:03:54;7.10;;;1.00;;
616;SDS011;295;51.628;7.520;2022-07-23T00:06:43;1.00;;;0.70;;
616;SDS011;295;51.628;7.520;2022-07-23T00:09:32;1.93;;;1.00;;
616;SDS011;295;51.628;7.520;2022-07-23T00:12:21;1.00;;;0.60;;
616;SDS011;295;51.628;7.520;2022-07-23T00:15:10;1.53;;;0.90;;
616;SDS011;295;51.628;7.520;2022-07-23T00:18:00;1.10;;;0.70;;
616;SDS011;295;51.628;7.520;2022-07-23T00:20:49;4.60;;;3.50;;
616;SDS011;295;51.628;7.520;2022-07-23T00:23:38;2.13;;;1.27;;
616;SDS011;295;51.628;7.520;2022-07-23T00:26:27;1.10;;;1.00;;
616;SDS011;295;51.628;7.520;2022-07-23T00:29:16;0.90;;;0.60;;
616;SDS011;295;51.628;7.520;2022-07-23T00:32:05;1.00;;;0.80;;
616;SDS011;295;51.628;7.520;2022-07-23T00:34:55;1.00;;;0.63;;
616;SDS011;295;51.628;7.520;2022-07-23T00:37:44;0.90;;;0.50;;
616;SDS011;295;51.628;7.520;2022-07-23T00:40:33;4.10;;;3.10;;
616;SDS011;295;51.628;7.520;2022-07-23T00:43:22;1.10;;;1.00;;
616;SDS011;295;51.628;7.520;2022-07-23T00:46:12;1.00;;;0.70;;
616;SDS011;295;51.628;7.520;2022-07-23T00:49:01;1.73;;;1.57;;
616;SDS011;295;51.628;7.520;2022-07-23T00:51:52;1.30;;;1.03;;
616;SDS011;295;51.628;7.520;2022-07-23T00:54:41;1.10;;;0.77;;
616;SDS011;295;51.628;7.520;2022-07-23T00:57:30;1.30;;;1.20;;
616;SDS011;295;51.628;7.520;2022-07-23T01:00:19;1.43;;;1.20;;
616;SDS011;295;51.628;7.520;2022-07-23T01:03:08;2.47;;;2.00;;
616;SDS011;295;51.628;7.520;2022-07-23T01:05:57;3.10;;;2.70;;
616;SDS011;295;51.628;7.520;2022-07-23T01:08:47;2.53;;;2.27;;
616;SDS011;295;51.628;7.520;2022-07-23T01:11:36;3.87;;;3.00;;
616;SDS011;295;51.628;7.520;2022-07-23T01:14:26;4.17;;;3.77;;
616;SDS011;295;51.628;7.520;2022-07-23T01:17:15;4.13;;;3.70;;
616;SDS011;295;51.628;7.520;2022-07-23T01:20:05;3.53;;;2.90;;
616;SDS011;295;51.628;7.520;2022-07-23T01:22:55;3.80;;;3.33;;
616;SDS011;295;51.628;7.520;2022-07-23T01:25:47;0.90;;;0.57;;
616;SDS011;295;51.628;7.520;2022-07-23T01:28:36;2.20;;;1.97;;
616;SDS011;295;51.628;7.520;2022-07-23T01:31:25;3.60;;;3.00;;
616;SDS011;295;51.628;7.520;2022-07-23T01:34:17;0.90;;;0.70;;
616;SDS011;295;51.628;7.520;2022-07-23T01:37:06;2.80;;;2.33;;
616;SDS011;295;51.628;7.520;2022-07-23T01:39:56;3.10;;;2.80;;
616;SDS011;295;51.628;7.520;2022-07-23T01:42:45;0.90;;;0.77;;
616;SDS011;295;51.628;7.520;2022-07-23T01:45:34;0.90;;;0.67;;
616;SDS011;295;51.628;7.520;2022-07-23T01:48:23;1.10;;;0.73;;
616;SDS011;295;51.628;7.520;2022-07-23T01:51:12;0.80;;;0.40;;
616;SDS011;295;51.628;7.520;2022-07-23T01:54:01;1.33;;;1.23;;
616;SDS011;295;51.628;7.520;2022-07-23T01:56:52;3.80;;;3.10;;
616;SDS011;295;51.628;7.520;2022-07-23T01:59:41;3.77;;;3.40;;
616;SDS011;295;51.628;7.520;2022-07-23T02:02:29;3.80;;;3.10;;
616;SDS011;295;51.628;7.520;2022-07-23T02:05:18;4.20;;;3.80;;
616;SDS011;295;51.628;7.520;2022-07-23T02:08:07;3.80;;;3.40;;
616;SDS011;295;51.628;7.520;2022-07-23T02:10:56;3.50;;;3.10;;
616;SDS011;295;51.628;7.520;2022-07-23T02:13:47;3.17;;;2.87;;
616;SDS011;295;51.628;7.520;2022-07-23T02:16:35;2.40;;;2.20;;
616;SDS011;295;51.628;7.520;2022-07-23T02:19:25;0.90;;;0.70;;
616;SDS011;295;51.628;7.520;2022-07-23T02:22:14;2.50;;;1.33;;
616;SDS011;295;51.628;7.520;2022-07-23T02:25:03;0.90;;;0.70;;
616;SDS011;295;51.628;7.520;2022-07-23T02:27:52;1.07;;;0.97;;
616;SDS011;295;51.628;7.520;2022-07-23T02:30:42;0.80;;;0.40;;
616;SDS011;295;51.628;7.520;2022-07-23T02:33:31;1.10;;;0.90;;
616;SDS011;295;51.628;7.520;2022-07-23T02:36:20;0.90;;;0.50;;
616;SDS011;295;51.628;7.520;2022-07-23T02:39:10;1.60;;;0.67;;
616;SDS011;295;51.628;7.520;2022-07-23T02:41:59;1.00;;;0.70;;
616;SDS011;295;51.628;7.520;2022-07-23T02:44:48;1.23;;;0.80;;
616;SDS011;295;51.628;7.520;2022-07-23T02:47:38;1.93;;;1.77;;
616;SDS011;295;51.628;7.520;2022-07-23T02:50:27;2.50;;;0.77;;
616;SDS011;295;51.628;7.520;2022-07-23T02:53:16;4.97;;;4.47;;
616;SDS011;295;51.628;7.520;2022-07-23T02:56:05;1.67;;;0.77;;
616;SDS011;295;51.628;7.520;2022-07-23T02:58:54;0.90;;;0.70;;
616;SDS011;295;51.628;7.520;2022-07-23T03:01:43;2.20;;;1.60;;
616;SDS011;295;51.628;7.520;2022-07-23T03:04:34;1.37;;;0.77;;
616;SDS011;295;51.628;7.520;2022-07-23T03:07:23;1.10;;;0.80;;
616;SDS011;295;51.628;7.520;2022-07-23T03:10:12;2.47;;;0.80;;
616;SDS011;295;51.628;7.520;2022-07-23T03:13:01;0.87;;;0.60;;
616;SDS011;295;51.628;7.520;2022-07-23T03:15:50;1.40;;;1.30;;
616;SDS011;295;51.628;7.520;2022-07-23T03:18:39;4.40;;;4.00;;
616;SDS011;295;51.628;7.520;2022-07-23T03:21:30;4.60;;;4.10;;
616;SDS011;295;51.628;7.520;2022-07-23T03:24:19;4.43;;;4.03;;
616;SDS011;295;51.628;7.520;2022-07-23T03:27:10;5.00;;;4.20;;
616;SDS011;295;51.628;7.520;2022-07-23T03:29:59;5.27;;;3.77;;
616;SDS011;295;51.628;7.520;2022-07-23T03:32:49;5.00;;;4.03;;
616;SDS011;295;51.628;7.520;2022-07-23T03:35:38;4.60;;;3.97;;
616;SDS011;295;51.628;7.520;2022-07-23T03:38:28;4.70;;;4.17;;
616;SDS011;295;51.628;7.520;2022-07-23T03:41:17;5.10;;;4.60;;
616;SDS011;295;51.628;7.520;2022-07-23T03:44:06;5.40;;;4.90;;
616;SDS011;295;51.628;7.520;2022-07-23T03:46:55;4.77;;;4.27;;
616;SDS011;295;51.628;7.520;2022-07-23T03:49:44;5.17;;;4.23;;
616;SDS011;295;51.628;7.520;2022-07-23T03:52:33;5.97;;;4.80;;
616;SDS011;295;51.628;7.520;2022-07-23T03:55:23;6.10;;;5.37;;
616;SDS011;295;51.628;7.520;2022-07-23T03:58:12;5.33;;;4.83;;
616;SDS011;295;51.628;7.520;2022-07-23T04:01:01;6.33;;;4.23;;
616;SDS011;295;51.628;7.520;2022-07-23T04:03:51;4.50;;;3.60;;
616;SDS011;295;51.628;7.520;2022-07-23T04:06:40;5.60;;;4.60;;
616;SDS011;295;51.628;7.520;2022-07-23T04:09:29;4.70;;;4.20;;
616;SDS011;295;51.628;7.520;2022-07-23T04:12:19;5.40;;;4.53;;
616;SDS011;295;51.628;7.520;2022-07-23T04:15:08;4.60;;;3.97;;
616;SDS011;295;51.628;7.520;2022-07-23T04:17:57;5.70;;;4.80;;
616;SDS011;295;51.628;7.520;2022-07-23T04:20:46;5.43;;;4.93;;
616;SDS011;295;51.628;7.520;2022-07-23T04:23:35;4.83;;;4.13;;
616;SDS011;295;51.628;7.520;2022-07-23T04:26:24;4.13;;;3.70;;
616;SDS011;295;51.628;7.520;2022-07-23T04:29:14;0.97;;;0.80;;
616;SDS011;295;51.628;7.520;2022-07-23T04:32:03;1.70;;;1.60;;
616;SDS011;295;51.628;7.520;2022-07-23T04:34:52;1.70;;;1.47;;
616;SDS011;295;51.628;7.520;2022-07-23T04:37:41;2.07;;;1.63;;
616;SDS011;295;51.628;7.520;2022-07-23T04:40:30;1.47;;;1.00;;
616;SDS011;295;51.628;7.520;2022-07-23T04:43:19;1.50;;;0.87;;
616;SDS011;295;51.628;7.520;2022-07-23T04:46:09;1.67;;;1.37;;
616;SDS011;295;51.628;7.520;2022-07-23T04:48:58;1.23;;;1.07;;
616;SDS011;295;51.628;7.520;2022-07-23T04:51:48;1.57;;;1.47;;
616;SDS011;295;51.628;7.520;2022-07-23T04:54:37;1.17;;;0.60;;
616;SDS011;295;51.628;7.520;2022-07-23T04:57:26;0.80;;;0.53;;
616;SDS011;295;51.628;7.520;2022-07-23T05:00:15;0.90;;;0.70;;
616;SDS011;295;51.628;7.520;2022-07-23T05:03:06;1.00;;;0.77;;
616;SDS011;295;51.628;7.520;2022-07-23T05:05:55;1.17;;;1.00;;
616;SDS011;295;51.628;7.520;2022-07-23T05:08:43;2.47;;;2.27;;
616;SDS011;295;51.628;7.520;2022-07-23T05:11:33;1.33;;;0.83;;
616;SDS011;295;51.628;7.520;2022-07-23T05:14:21;0.90;;;0.63;;
616;SDS011;295;51.628;7.520;2022-07-23T05:17:10;2.13;;;0.90;;
616;SDS011;295;51.628;7.520;2022-07-23T05:20:01;0.90;;;0.70;;
616;SDS011;295;51.628;7.520;2022-07-23T05:22:50;0.93;;;0.80;;
616;SDS011;295;51.628;7.520;2022-07-23T05:25:39;1.63;;;1.23;;
616;SDS011;295;51.628;7.520;2022-07-23T05:28:28;1.43;;;1.33;;
616;SDS011;295;51.628;7.520;2022-07-23T05:31:17;0.83;;;0.57;;
616;SDS011;295;51.628;7.520;2022-07-23T05:34:07;1.67;;;1.47;;
616;SDS011;295;51.628;7.520;2022-07-23T05:37:04;1.03;;;0.93;;
616;SDS011;295;51.628;7.520;2022-07-23T05:39:54;1.53;;;0.97;;
616;SDS011;295;51.628;7.520;2022-07-23T05:42:43;0.90;;;0.60;;
616;SDS011;295;51.628;7.520;2022-07-23T05:45:32;0.90;;;0.60;;
616;SDS011;295;51.628;7.520;2022-07-23T05:48:21;1.37;;;1.00;;
616;SDS011;295;51.628;7.520;2022-07-23T05:51:10;0.90;;;0.70;;
616;SDS011;295;51.628;7.520;2022-07-23T05:54:00;1.20;;;0.97;;
616;SDS011;295;51.628;7.520;2022-07-23T05:56:49;1.83;;;1.40;;
616;SDS011;295;51.628;7.520;2022-07-23T05:59:39;1.10;;;0.80;;
616;SDS011;295;51.628;7.520;2022-07-23T06:02:28;1.17;;;0.90;;
616;SDS011;295;51.628;7.520;2022-07-23T06:05:17;1.30;;;0.97;;
616;SDS011;295;51.628;7.520;2022-07-23T06:08:06;1.30;;;0.70;;
616;SDS011;295;51.628;7.520;2022-07-23T06:10:56;1.07;;;0.97;;
616;SDS011;295;51.628;7.520;2022-07-23T06:13:45;1.00;;;0.70;;
616;SDS011;295;51.628;7.520;2022-07-23T06:16:34;1.10;;;0.70;;
616;SDS011;295;51.628;7.520;2022-07-23T06:19:23;1.97;;;1.83;;
616;SDS011;295;51.628;7.520;2022-07-23T06:22:12;0.90;;;0.60;;
616;SDS011;295;51.628;7.520;2022-07-23T06:25:01;1.57;;;1.33;;
616;SDS011;295;51.628;7.520;2022-07-23T06:28:00;3.13;;;2.37;;
616;SDS011;295;51.628;7.520;2022-07-23T06:30:49;1.33;;;1.20;;
616;SDS011;295;51.628;7.520;2022-07-23T06:33:39;4.50;;;3.63;;
616;SDS011;295;51.628;7.520;2022-07-23T06:36:28;2.57;;;1.00;;
616;SDS011;295;51.628;7.520;2022-07-23T06:39:17;2.23;;;1.50;;
616;SDS011;295;51.628;7.520;2022-07-23T06:42:06;2.03;;;1.20;;
616;SDS011;295;51.628;7.520;2022-07-23T06:44:56;1.10;;;0.77;;
616;SDS011;295;51.628;7.520;2022-07-23T06:47:45;1.10;;;0.93;;
616;SDS011;295;51.628;7.520;2022-07-23T06:50:34;0.90;;;0.60;;
616;SDS011;295;51.628;7.520;2022-07-23T06:53:23;0.90;;;0.73;;
616;SDS011;295;51.628;7.520;2022-07-23T06:56:12;1.00;;;0.80;;
616;SDS011;295;51.628;7.520;2022-07-23T06:59:07;1.40;;;1.10;;
616;SDS011;295;51.628;7.520;2022-07-23T07:01:57;0.90;;;0.57;;
616;SDS011;295;51.628;7.520;2022-07-23T07:04:46;1.90;;;1.80;;
616;SDS011;295;51.628;7.520;2022-07-23T07:07:35;3.10;;;1.57;;
616;SDS011;295;51.628;7.520;2022-07-23T07:10:24;3.00;;;2.80;;
616;SDS011;295;51.628;7.520;2022-07-23T07:13:13;1.43;;;1.10;;
616;SDS011;295;51.628;7.520;2022-07-23T07:16:02;1.73;;;1.63;;
616;SDS011;295;51.628;7.520;2022-07-23T07:18:52;1.53;;;1.20;;
616;SDS011;295;51.628;7.520;2022-07-23T07:21:41;2.90;;;1.37;;
616;SDS011;295;51.628;7.520;2022-07-23T07:24:30;2.30;;;2.10;;
616;SDS011;295;51.628;7.520;2022-07-23T07:27:24;1.50;;;0.90;;
616;SDS011;295;51.628;7.520;2022-07-23T07:30:13;2.10;;;1.90;;
616;SDS011;295;51.628;7.520;2022-07-23T07:33:02;2.43;;;2.23;;
616;SDS011;295;51.628;7.520;2022-07-23T07:35:52;1.40;;;1.17;;
616;SDS011;295;51.628;7.520;2022-07-23T07:38:41;1.37;;;1.20;;
616;SDS011;295;51.628;7.520;2022-07-23T07:41:30;2.50;;;1.80;;
616;SDS011;295;51.628;7.520;2022-07-23T07:44:19;2.67;;;1.80;;
616;SDS011;295;51.628;7.520;2022-07-23T07:47:08;3.63;;;2.53;;
616;SDS011;295;51.628;7.520;2022-07-23T07:49:57;3.70;;;2.88;;
616;SDS011;295;51.628;7.520;2022-07-23T07:52:56;5.25;;;3.00;;
616;SDS011;295;51.628;7.520;2022-07-23T07:55:51;5.45;;;3.97;;
616;SDS011;295;51.628;7.520;2022-07-23T07:58:49;3.05;;;2.75;;
616;SDS011;295;51.628;7.520;2022-07-23T08:01:39;3.97;;;3.58;;
616;SDS011;295;51.628;7.520;2022-07-23T08:04:28;3.42;;;2.60;;
616;SDS011;295;51.628;7.520;2022-07-23T08:07:18;3.63;;;3.33;;
616;SDS011;295;51.628;7.520;2022-07-23T08:10:08;3.30;;;3.00;;
616;SDS011;295;51.628;7.520;2022-07-23T08:12:58;2.05;;;1.85;;
616;SDS011;295;51.628;7.520;2022-07-23T08:15:48;2.63;;;1.90;;
616;SDS011;295;51.628;7.520;2022-07-23T08:18:39;2.40;;;2.10;;
616;SDS011;295;51.628;7.520;2022-07-23T08:21:29;2.20;;;2.00;;
616;SDS011;295;51.628;7.520;2022-07-23T08:24:18;2.22;;;2.00;;
616;SDS011;295;51.628;7.520;2022-07-23T08:27:08;2.28;;;2.08;;
616;SDS011;295;51.628;7.520;2022-07-23T08:29:57;4.75;;;1.77;;
616;SDS011;295;51.628;7.520;2022-07-23T08:32:53;2.60;;;2.40;;
616;SDS011;295;51.628;7.520;2022-07-23T08:35:43;3.17;;;2.33;;
616;SDS011;295;51.628;7.520;2022-07-23T08:38:34;2.55;;;2.35;;
616;SDS011;295;51.628;7.520;2022-07-23T08:41:23;2.47;;;2.10;;
616;SDS011;295;51.628;7.520;2022-07-23T08:44:13;2.35;;;1.88;;
616;SDS011;295;51.628;7.520;2022-07-23T08:47:04;2.10;;;1.90;;
616;SDS011;295;51.628;7.520;2022-07-23T08:49:53;2.03;;;1.83;;
616;SDS011;295;51.628;7.520;2022-07-23T08:52:43;2.75;;;2.33;;
616;SDS011;295;51.628;7.520;2022-07-23T08:55:32;1.88;;;1.67;;
616;SDS011;295;51.628;7.520;2022-07-23T08:58:21;2.05;;;1.75;;
616;SDS011;295;51.628;7.520;2022-07-23T09:01:15;2.00;;;1.55;;
616;SDS011;295;51.628;7.520;2022-07-23T09:04:05;1.60;;;1.38;;
616;SDS011;295;51.628;7.520;2022-07-23T09:06:53;1.80;;;1.70;;
616;SDS011;295;51.628;7.520;2022-07-23T09:09:43;2.33;;;2.00;;
616;SDS011;295;51.628;7.520;2022-07-23T09:12:32;1.45;;;1.27;;
616;SDS011;295;51.628;7.520;2022-07-23T09:15:21;1.90;;;1.63;;
616;SDS011;295;51.628;7.520;2022-07-23T09:18:11;1.92;;;1.70;;
616;SDS011;295;51.628;7.520;2022-07-23T09:21:11;1.58;;;1.48;;
616;SDS011;295;51.628;7.520;2022-07-23T09:24:02;1.83;;;1.63;;
616;SDS011;295;51.628;7.520;2022-07-23T09:26:52;2.67;;;1.85;;
616;SDS011;295;51.628;7.520;2022-07-23T09:29:42;1.98;;;1.80;;
616;SDS011;295;51.628;7.520;2022-07-23T09:32:43;1.60;;;1.50;;
616;SDS011;295;51.628;7.520;2022-07-23T09:35:47;1.90;;;1.70;;
616;SDS011;295;51.628;7.520;2022-07-23T09:38:36;1.80;;;1.42;;
616;SDS011;295;51.628;7.520;2022-07-23T09:41:40;1.60;;;1.40;;
616;SDS011;295;51.628;7.520;2022-07-23T09:44:29;1.50;;;1.20;;
616;SDS011;295;51.628;7.520;2022-07-23T09:47:18;1.90;;;1.60;;
616;SDS011;295;51.628;7.520;2022-07-23T09:50:09;1.80;;;1.20;;
616;SDS011;295;51.628;7.520;2022-07-23T09:53:01;1.30;;;1.20;;
616;SDS011;295;51.628;7.520;2022-07-23T09:55:50;1.42;;;1.33;;
616;SDS011;295;51.628;7.520;2022-07-23T09:58:41;1.55;;;1.42;;
616;SDS011;295;51.628;7.520;2022-07-23T10:01:36;1.58;;;1.45;;
616;SDS011;295;51.628;7.520;2022-07-23T10:04:26;1.35;;;1.15;;
616;SDS011;295;51.628;7.520;2022-07-23T10:07:17;1.85;;;1.60;;
616;SDS011;295;51.628;7.520;2022-07-23T10:10:08;1.50;;;1.40;;
616;SDS011;295;51.628;7.520;2022-07-23T10:12:59;1.75;;;1.20;;
616;SDS011;295;51.628;7.520;2022-07-23T10:16:08;1.73;;;1.35;;
616;SDS011;295;51.628;7.520;2022-07-23T10:18:57;2.60;;;1.77;;
616;SDS011;295;51.628;7.520;2022-07-23T10:21:46;1.70;;;1.60;;
616;SDS011;295;51.628;7.520;2022-07-23T10:24:50;3.58;;;1.90;;
616;SDS011;295;51.628;7.520;2022-07-23T10:28:04;1.30;;;1.15;;
616;SDS011;295;51.628;7.520;2022-07-23T10:31:02;1.50;;;1.30;;
616;SDS011;295;51.628;7.520;2022-07-23T10:34:19;1.63;;;1.33;;
616;SDS011;295;51.628;7.520;2022-07-23T10:37:14;1.75;;;1.15;;
616;SDS011;295;51.628;7.520;2022-07-23T10:40:12;1.20;;;1.00;;
616;SDS011;295;51.628;7.520;2022-07-23T10:43:05;1.63;;;1.17;;
616;SDS011;295;51.628;7.520;2022-07-23T10:46:20;1.60;;;1.17;;
616;SDS011;295;51.628;7.520;2022-07-23T10:49:25;1.45;;;1.35;;
616;SDS011;295;51.628;7.520;2022-07-23T10:52:17;1.55;;;1.38;;
616;SDS011;295;51.628;7.520;2022-07-23T11:01:51;1.40;;;1.30;;
616;SDS011;295;51.628;7.520;2022-07-23T11:04:49;1.40;;;1.30;;
616;SDS011;295;51.628;7.520;2022-07-23T11:11:10;1.40;;;1.17;;
616;SDS011;295;51.628;7.520;2022-07-23T11:14:00;1.33;;;1.23;;
616;SDS011;295;51.628;7.520;2022-07-23T11:16:49;1.38;;;1.27;;
616;SDS011;295;51.628;7.520;2022-07-23T11:23:03;1.73;;;1.55;;
616;SDS011;295;51.628;7.520;2022-07-23T11:25:52;1.17;;;1.05;;
616;SDS011;295;51.628;7.520;2022-07-23T11:28:41;1.40;;;1.13;;
616;SDS011;295;51.628;7.520;2022-07-23T11:31:31;2.13;;;1.20;;
616;SDS011;295;51.628;7.520;2022-07-23T11:34:30;1.10;;;1.00;;
616;SDS011;295;51.628;7.520;2022-07-23T11:37:29;1.20;;;1.00;;
616;SDS011;295;51.628;7.520;2022-07-23T11:40:24;1.15;;;0.95;;
616;SDS011;295;51.628;7.520;2022-07-23T11:43:14;1.10;;;1.00;;
616;SDS011;295;51.628;7.520;2022-07-23T11:46:04;1.10;;;0.80;;
616;SDS011;295;51.628;7.520;2022-07-23T11:49:02;1.55;;;1.33;;
616;SDS011;295;51.628;7.520;2022-07-23T11:52:04;2.05;;;0.80;;
616;SDS011;295;51.628;7.520;2022-07-23T11:54:55;1.10;;;0.90;;
616;SDS011;295;51.628;7.520;2022-07-23T11:57:45;1.13;;;0.82;;
616;SDS011;295;51.628;7.520;2022-07-23T12:00:36;1.35;;;1.25;;
616;SDS011;295;51.628;7.520;2022-07-23T12:03:29;1.23;;;1.05;;
616;SDS011;295;51.628;7.520;2022-07-23T12:06:19;1.10;;;1.00;;
616;SDS011;295;51.628;7.520;2022-07-23T12:09:08;1.15;;;0.80;;
616;SDS011;295;51.628;7.520;2022-07-23T12:11:59;1.40;;;0.95;;
616;SDS011;295;51.628;7.520;2022-07-23T12:14:50;1.15;;;1.05;;
616;SDS011;295;51.628;7.520;2022-07-23T12:17:42;1.10;;;0.85;;
616;SDS011;295;51.628;7.520;2022-07-23T12:20:38;1.10;;;0.90;;
616;SDS011;295;51.628;7.520;2022-07-23T12:23:30;1.30;;;1.05;;
616;SDS011;295;51.628;7.520;2022-07-23T12:26:19;1.00;;;0.80;;
616;SDS011;295;51.628;7.520;2022-07-23T12:29:08;1.13;;;0.95;;
616;SDS011;295;51.628;7.520;2022-07-23T12:31:56;1.10;;;0.90;;
616;SDS011;295;51.628;7.520;2022-07-23T12:34:45;1.48;;;0.80;;
616;SDS011;295;51.628;7.520;2022-07-23T12:37:36;1.15;;;1.00;;
616;SDS011;295;51.628;7.520;2022-07-23T12:40:29;1.00;;;0.88;;
616;SDS011;295;51.628;7.520;2022-07-23T12:43:20;1.27;;;0.93;;
616;SDS011;295;51.628;7.520;2022-07-23T12:46:10;1.10;;;1.00;;
616;SDS011;295;51.628;7.520;2022-07-23T12:49:02;1.33;;;1.15;;
616;SDS011;295;51.628;7.520;2022-07-23T12:51:51;1.10;;;0.95;;
616;SDS011;295;51.628;7.520;2022-07-23T12:54:41;1.10;;;0.90;;
616;SDS011;295;51.628;7.520;2022-07-23T13:00:23;1.00;;;0.90;;
616;SDS011;295;51.628;7.520;2022-07-23T13:03:19;1.00;;;0.73;;
616;SDS011;295;51.628;7.520;2022-07-23T13:06:10;1.00;;;0.90;;
616;SDS011;295;51.628;7.520;2022-07-23T13:09:01;1.38;;;1.08;;
616;SDS011;295;51.628;7.520;2022-07-23T13:11:52;1.10;;;0.90;;
616;SDS011;295;51.628;7.520;2022-07-23T13:14:43;1.10;;;0.95;;
616;SDS011;295;51.628;7.520;2022-07-23T13:17:33;1.30;;;1.17;;
616;SDS011;295;51.628;7.520;2022-07-23T13:20:22;1.10;;;0.93;;
616;SDS011;295;51.628;7.520;2022-07-23T13:23:12;0.95;;;0.75;;
616;SDS011;295;51.628;7.520;2022-07-23T13:26:02;1.00;;;0.90;;
616;SDS011;295;51.628;7.520;2022-07-23T13:28:51;1.55;;;1.05;;
616;SDS011;295;51.628;7.520;2022-07-23T13:31:40;1.30;;;1.00;;
616;SDS011;295;51.628;7.520;2022-07-23T13:34:31;1.00;;;0.90;;
616;SDS011;295;51.628;7.520;2022-07-23T13:37:20;1.42;;;1.10;;
616;SDS011;295;51.628;7.520;2022-07-23T13:40:11;1.40;;;1.30;;
616;SDS011;295;51.628;7.520;2022-07-23T13:43:04;1.23;;;1.08;;
616;SDS011;295;51.628;7.520;2022-07-23T13:46:03;1.30;;;1.20;;
616;SDS011;295;51.628;7.520;2022-07-23T13:48:54;1.27;;;0.98;;
616;SDS011;295;51.628;7.520;2022-07-23T13:51:49;1.05;;;0.90;;
616;SDS011;295;51.628;7.520;2022-07-23T13:54:42;1.20;;;1.10;;
616;SDS011;295;51.628;7.520;2022-07-23T13:57:34;1.30;;;1.00;;
616;SDS011;295;51.628;7.520;2022-07-23T14:00:28;1.50;;;1.02;;
616;SDS011;295;51.628;7.520;2022-07-23T14:03:38;1.35;;;1.08;;
616;SDS011;295;51.628;7.520;2022-07-23T14:06:32;1.20;;;1.10;;
616;SDS011;295;51.628;7.520;2022-07-23T14:09:23;1.33;;;0.93;;
616;SDS011;295;51.628;7.520;2022-07-23T14:12:13;1.60;;;1.10;;
616;SDS011;295;51.628;7.520;2022-07-23T14:15:05;1.25;;;1.10;;
616;SDS011;295;51.628;7.520;2022-07-23T14:18:00;1.15;;;1.05;;
616;SDS011;295;51.628;7.520;2022-07-23T14:20:50;1.23;;;0.90;;
616;SDS011;295;51.628;7.520;2022-07-23T14:23:41;1.20;;;1.05;;
616;SDS011;295;51.628;7.520;2022-07-23T14:26:31;1.75;;;0.93;;
616;SDS011;295;51.628;7.520;2022-07-23T14:29:20;1.27;;;1.17;;
616;SDS011;295;51.628;7.520;2022-07-23T14:32:10;1.38;;;1.23;;
616;SDS011;295;51.628;7.520;2022-07-23T14:35:00;1.20;;;1.00;;
616;SDS011;295;51.628;7.520;2022-07-23T14:37:51;1.20;;;1.00;;
616;SDS011;295;51.628;7.520;2022-07-23T14:40:40;1.20;;;1.10;;
616;SDS011;295;51.628;7.520;2022-07-23T14:43:32;1.50;;;1.40;;
616;SDS011;295;51.628;7.520;2022-07-23T14:46:24;1.40;;;1.20;;
616;SDS011;295;51.628;7.520;2022-07-23T14:49:13;1.20;;;1.00;;
616;SDS011;295;51.628;7.520;2022-07-23T14:52:03;2.22;;;1.48;;
616;SDS011;295;51.628;7.520;2022-07-23T14:54:52;1.27;;;0.95;;
616;SDS011;295;51.628;7.520;2022-07-23T14:57:41;1.30;;;1.15;;
616;SDS011;295;51.628;7.520;2022-07-23T15:00:31;1.30;;;1.15;;
616;SDS011;295;51.628;7.520;2022-07-23T15:03:21;1.10;;;1.00;;
616;SDS011;295;51.628;7.520;2022-07-23T15:06:23;1.90;;;1.30;;
616;SDS011;295;51.628;7.520;2022-07-23T15:09:13;1.15;;;1.05;;
616;SDS011;295;51.628;7.520;2022-07-23T15:12:04;1.25;;;1.10;;
616;SDS011;295;51.628;7.520;2022-07-23T15:15:00;1.58;;;1.40;;
616;SDS011;295;51.628;7.520;2022-07-23T15:17:58;1.40;;;1.00;;
616;SDS011;295;51.628;7.520;2022-07-23T15:20:48;2.35;;;1.15;;
616;SDS011;295;51.628;7.520;2022-07-23T15:23:39;1.05;;;0.68;;
616;SDS011;295;51.628;7.520;2022-07-23T15:26:29;3.50;;;0.70;;
616;SDS011;295;51.628;7.520;2022-07-23T15:29:23;1.30;;;0.95;;
616;SDS011;295;51.628;7.520;2022-07-23T15:32:15;1.38;;;1.02;;
616;SDS011;295;51.628;7.520;2022-07-23T15:35:06;1.20;;;0.90;;
616;SDS011;295;51.628;7.520;2022-07-23T15:37:56;1.33;;;1.00;;
616;SDS011;295;51.628;7.520;2022-07-23T15:40:45;1.45;;;1.20;;
616;SDS011;295;51.628;7.520;2022-07-23T15:43:35;1.10;;;0.80;;
616;SDS011;295;51.628;7.520;2022-07-23T15:46:26;3.75;;;1.42;;
616;SDS011;295;51.628;7.520;2022-07-23T15:49:17;1.23;;;0.98;;
616;SDS011;295;51.628;7.520;2022-07-23T15:52:09;1.60;;;1.20;;
616;SDS011;295;51.628;7.520;2022-07-23T15:54:59;1.70;;;1.40;;
616;SDS011;295;51.628;7.520;2022-07-23T15:57:59;1.38;;;1.00;;
616;SDS011;295;51.628;7.520;2022-07-23T16:00:50;1.67;;;1.10;;
616;SDS011;295;51.628;7.520;2022-07-23T16:03:40;2.65;;;0.98;;
616;SDS011;295;51.628;7.520;2022-07-23T16:06:35;1.02;;;0.75;;
616;SDS011;295;51.628;7.520;2022-07-23T16:09:26;1.10;;;0.85;;
616;SDS011;295;51.628;7.520;2022-07-23T16:12:16;1.00;;;0.70;;
616;SDS011;295;51.628;7.520;2022-07-23T16:15:09;1.30;;;0.70;;
616;SDS011;295;51.628;7.520;2022-07-23T16:18:00;1.20;;;0.80;;
616;SDS011;295;51.628;7.520;2022-07-23T16:20:50;1.20;;;0.80;;
616;SDS011;295;51.628;7.520;2022-07-23T16:23:41;1.15;;;0.80;;
616;SDS011;295;51.628;7.520;2022-07-23T16:26:33;1.23;;;0.70;;
616;SDS011;295;51.628;7.520;2022-07-23T16:29:24;1.00;;;0.80;;
616;SDS011;295;51.628;7.520;2022-07-23T16:32:14;1.55;;;0.90;;
616;SDS011;295;51.628;7.520;2022-07-23T16:35:04;1.33;;;1.10;;
616;SDS011;295;51.628;7.520;2022-07-23T16:38:01;1.23;;;0.75;;
616;SDS011;295;51.628;7.520;2022-07-23T16:40:50;1.00;;;0.60;;
616;SDS011;295;51.628;7.520;2022-07-23T16:43:40;1.23;;;0.73;;
616;SDS011;295;51.628;7.520;2022-07-23T16:46:29;1.67;;;1.00;;
616;SDS011;295;51.628;7.520;2022-07-23T16:49:18;1.00;;;0.67;;
616;SDS011;295;51.628;7.520;2022-07-23T16:52:07;1.43;;;0.87;;
616;SDS011;295;51.628;7.520;2022-07-23T16:54:57;1.10;;;0.60;;
616;SDS011;295;51.628;7.520;2022-07-23T16:57:48;2.00;;;1.63;;
616;SDS011;295;51.628;7.520;2022-07-23T17:00:39;1.30;;;0.90;;
616;SDS011;295;51.628;7.520;2022-07-23T17:03:32;1.00;;;0.67;;
616;SDS011;295;51.628;7.520;2022-07-23T17:06:22;1.03;;;0.70;;
616;SDS011;295;51.628;7.520;2022-07-23T17:09:12;1.20;;;0.80;;
616;SDS011;295;51.628;7.520;2022-07-23T17:12:03;1.10;;;0.63;;
616;SDS011;295;51.628;7.520;2022-07-23T17:14:54;1.10;;;0.60;;
616;SDS011;295;51.628;7.520;2022-07-23T17:17:45;1.00;;;0.60;;
616;SDS011;295;51.628;7.520;2022-07-23T17:20:36;0.90;;;0.50;;
616;SDS011;295;51.628;7.520;2022-07-23T17:23:26;1.90;;;0.83;;
616;SDS011;295;51.628;7.520;2022-07-23T17:26:16;1.10;;;0.60;;
616;SDS011;295;51.628;7.520;2022-07-23T17:29:07;1.50;;;0.80;;
616;SDS011;295;51.628;7.520;2022-07-23T17:31:56;1.00;;;0.70;;
616;SDS011;295;51.628;7.520;2022-07-23T17:35:01;1.33;;;1.10;;
616;SDS011;295;51.628;7.520;2022-07-23T17:37:51;1.03;;;0.80;;
616;SDS011;295;51.628;7.520;2022-07-23T17:40:40;1.10;;;0.60;;
616;SDS011;295;51.628;7.520;2022-07-23T17:43:29;1.50;;;0.90;;
616;SDS011;295;51.628;7.520;2022-07-23T17:46:18;1.80;;;1.70;;
616;SDS011;295;51.628;7.520;2022-07-23T17:49:07;1.20;;;0.97;;
616;SDS011;295;51.628;7.520;2022-07-23T17:52:00;1.00;;;0.60;;
616;SDS011;295;51.628;7.520;2022-07-23T17:54:49;1.83;;;1.50;;
616;SDS011;295;51.628;7.520;2022-07-23T17:57:38;0.90;;;0.60;;
616;SDS011;295;51.628;7.520;2022-07-23T18:00:29;1.20;;;0.70;;
616;SDS011;295;51.628;7.520;2022-07-23T18:03:19;1.50;;;0.83;;
616;SDS011;295;51.628;7.520;2022-07-23T18:06:08;1.97;;;0.57;;
616;SDS011;295;51.628;7.520;2022-07-23T18:08:58;1.73;;;0.80;;
616;SDS011;295;51.628;7.520;2022-07-23T18:11:52;1.13;;;0.70;;
616;SDS011;295;51.628;7.520;2022-07-23T18:14:41;1.13;;;0.77;;
616;SDS011;295;51.628;7.520;2022-07-23T18:17:30;0.90;;;0.40;;
616;SDS011;295;51.628;7.520;2022-07-23T18:20:19;1.17;;;0.80;;
616;SDS011;295;51.628;7.520;2022-07-23T18:23:08;0.90;;;0.60;;
616;SDS011;295;51.628;7.520;2022-07-23T18:25:58;1.93;;;0.50;;
616;SDS011;295;51.628;7.520;2022-07-23T18:28:47;1.00;;;0.70;;
616;SDS011;295;51.628;7.520;2022-07-23T18:31:37;2.20;;;0.90;;